Terminal Aerodrome Forecast
Issued by NWS

Home | Current Version | Previous Version | Text Only | Print | Product List | Glossary On
Versions: 1 2 3 4 5 6 7 8 9 10 11 12 13 14 15 16 17 18 19 20 21 22 23 24 25 26 27 28 29 30 31 32 33 34 35 36 37 38 39 40 41 42 43 44 45 46 47 48 49 50
000
FTUS45 KBOU 282337
TAFBJC
TAF
KBJC 282337Z 2900/2924 08008KT P6SM VCTS SCT050CB BKN100
      TEMPO 2900/2901 VRB15G25KT BKN050CB
     FM290200 14008KT P6SM VCSH SCT060 BKN100
      TEMPO 2902/2904 -SHRA BKN060
     FM290400 25007KT P6SM SCT080 SCT120
     FM291200 30008KT P6SM VCSH SCT030 BKN090
     FM291600 01010KT P6SM SCT040 BKN060
      TEMPO 2917/2921 -SHRA BKN040
     FM292100 02014KT P6SM VCTS SCT030CB BKN050 OVC080
      TEMPO 2921/2924 -SHRA OVC030=

USA.gov is the U.S. government's official web portal to all federal, state and local government web resources and services.